Time;durP1;ratioP1;P1;durP2;ratioP2;P2;SDS_P1;SDS_P2;PMS_P1;PMS_P2;Temp;Humidity;BMP_temperature;BMP_pressure;BME280_temperature;BME280_humidity;BME280_pressure;Samples;Min_cycle;Max_cycle;Signal;HPM_P1;HPM_P2
2023/11/24 00:02:21;;;;;;;13.73;4.82;;;;;;;9.89;100.00;100613.53;4979496;28;20481;-83
2023/11/24 00:04:47;;;;;;;20.60;5.18;;;;;;;9.92;100.00;100618.47;4978598;28;20126;-83
2023/11/24 00:07:17;;;;;;;20.63;4.65;;;;;;;9.93;100.00;100625.31;4981141;28;20512;-82
2023/11/24 00:09:46;;;;;;;23.85;5.22;;;;;;;9.91;100.00;100622.03;4979787;28;20118;-81
2023/11/24 00:12:13;;;;;;;17.58;4.88;;;;;;;9.84;100.00;100629.66;4980018;28;20109;-82
2023/11/24 00:14:40;;;;;;;25.27;5.47;;;;;;;9.83;100.00;100630.63;4979728;28;20493;-81
2023/11/24 00:17:09;;;;;;;29.75;5.78;;;;;;;9.78;100.00;100626.84;4978794;28;20074;-79
2023/11/24 00:19:36;;;;;;;22.70;5.22;;;;;;;9.83;100.00;100630.63;4979718;28;20500;-80
2023/11/24 00:22:06;;;;;;;20.92;5.55;;;;;;;9.78;100.00;100616.38;4980543;28;20077;-82
2023/11/24 00:24:33;;;;;;;22.17;5.22;;;;;;;9.78;100.00;100616.38;4979212;28;20074;-81
2023/11/24 00:27:01;;;;;;;22.70;6.18;;;;;;;9.78;100.00;100611.16;4979436;28;20090;-83
2023/11/24 00:29:28;;;;;;;22.25;4.63;;;;;;;9.77;100.00;100619.97;4978856;28;20105;-82
2023/11/24 00:31:54;;;;;;;24.92;5.50;;;;;;;9.71;100.00;100610.94;4979045;28;20074;-83
2023/11/24 00:34:23;;;;;;;29.30;6.57;;;;;;;9.74;100.00;100620.25;4978512;28;20081;-81
2023/11/24 00:36:50;;;;;;;15.60;4.55;;;;;;;9.72;100.00;100630.03;4978669;28;20057;-81
2023/11/24 00:39:17;;;;;;;20.95;5.05;;;;;;;9.69;100.00;100627.72;4978007;28;20644;-80
2023/11/24 00:41:43;;;;;;;26.27;5.60;;;;;;;9.63;100.00;100632.59;4976754;28;20058;-80
2023/11/24 00:44:10;;;;;;;22.65;5.97;;;;;;;9.72;100.00;100632.66;4975829;28;20078;-80
2023/11/24 00:46:36;;;;;;;26.08;5.63;;;;;;;9.68;100.00;100615.63;4976688;28;20115;-80
2023/11/24 00:49:02;;;;;;;26.95;5.82;;;;;;;9.71;100.00;100621.38;4976025;28;20051;-79
2023/11/24 00:51:30;;;;;;;25.75;5.68;;;;;;;9.74;100.00;100622.88;4976631;28;20058;-80
2023/11/24 00:53:57;;;;;;;29.25;6.10;;;;;;;9.64;100.00;100618.53;4982907;28;20069;-79
2023/11/24 00:56:23;;;;;;;20.75;5.63;;;;;;;9.62;100.00;100636.16;4976099;28;20069;-80
2023/11/24 00:58:50;;;;;;;28.40;5.35;;;;;;;9.64;100.00;100636.84;4975621;28;20053;-80
2023/11/24 01:01:18;;;;;;;24.77;5.72;;;;;;;9.62;100.00;100641.38;4975543;28;20066;-79
2023/11/24 01:03:45;;;;;;;23.80;5.65;;;;;;;9.67;100.00;100633.09;4982596;28;20047;-79
2023/11/24 01:06:12;;;;;;;20.60;4.95;;;;;;;9.61;100.00;100639.75;4974943;28;20417;-79
2023/11/24 01:08:40;;;;;;;16.98;5.15;;;;;;;9.63;100.00;100632.59;4975646;28;20069;-78
2023/11/24 01:11:08;;;;;;;24.75;6.22;;;;;;;9.58;100.00;100631.38;4974969;28;20133;-79
2023/11/24 01:13:36;;;;;;;24.42;5.72;;;;;;;9.59;100.00;100628.63;4974196;28;20047;-79
2023/11/24 01:16:04;;;;;;;24.73;5.10;;;;;;;9.57;100.00;100624.53;4975085;28;20051;-79
2023/11/24 01:18:32;;;;;;;25.05;5.15;;;;;;;9.63;100.00;100629.97;4974274;28;20047;-78
2023/11/24 01:20:59;;;;;;;21.98;5.05;;;;;;;9.59;100.00;100628.63;4974727;28;20114;-79
2023/11/24 01:23:27;;;;;;;21.02;4.88;;;;;;;9.55;100.00;100621.22;4980667;28;20150;-79
2023/11/24 01:25:55;;;;;;;18.90;4.60;;;;;;;9.53;100.00;100618.78;4974738;28;20057;-79
2023/11/24 01:28:23;;;;;;;23.35;5.32;;;;;;;9.47;100.00;100632.41;4975444;28;20496;-79
2023/11/24 01:30:50;;;;;;;24.48;5.25;;;;;;;9.51;100.00;100614.66;4976062;28;20051;-80
2023/11/24 01:33:16;;;;;;;25.02;5.18;;;;;;;9.56;99.70;100623.69;4976410;28;20106;-80
2023/11/24 01:35:43;;;;;;;25.63;6.25;;;;;;;9.46;99.66;100622.13;4977071;28;20106;-79
2023/11/24 01:38:10;;;;;;;22.52;4.97;;;;;;;9.49;98.42;100609.59;4983056;28;20054;-79
2023/11/24 01:40:38;;;;;;;18.55;4.53;;;;;;;9.42;98.17;100610.34;4974810;28;20508;-79
2023/11/24 01:43:07;;;;;;;22.05;5.05;;;;;;;9.50;97.96;100608.63;4972181;28;20050;-79
2023/11/24 01:45:34;;;;;;;23.33;5.10;;;;;;;9.45;97.82;100600.41;4975193;28;20046;-79
2023/11/24 01:48:01;;;;;;;23.55;5.20;;;;;;;9.39;97.47;100606.25;4975132;28;20061;-79
2023/11/24 01:50:27;;;;;;;18.73;4.88;;;;;;;9.35;97.45;100614.53;4975425;28;20134;-79
2023/11/24 01:52:54;;;;;;;21.73;4.95;;;;;;;9.46;96.73;100611.66;4977767;28;20058;-79
2023/11/24 01:55:23;;;;;;;24.42;6.47;;;;;;;9.45;97.13;100626.53;4975241;28;20121;-79
2023/11/24 01:57:52;;;;;;;21.35;4.90;;;;;;;9.45;98.58;100644.03;4975504;28;20468;-79
2023/11/24 02:00:20;;;;;;;30.42;6.65;;;;;;;9.43;99.58;100654.59;4975345;28;20074;-79
2023/11/24 02:02:47;;;;;;;21.48;4.85;;;;;;;9.37;100.00;100663.03;4974326;28;20078;-79
2023/11/24 02:05:14;;;;;;;21.05;4.80;;;;;;;9.30;100.00;100659.38;4974271;28;20134;-79
2023/11/24 02:07:42;;;;;;;23.13;4.90;;;;;;;9.12;100.00;100667.16;4974834;28;20055;-79
2023/11/24 02:10:10;;;;;;;26.20;4.95;;;;;;;9.10;100.00;100652.59;4974353;28;20051;-79
2023/11/24 02:12:36;;;;;;;19.20;5.10;;;;;;;8.91;100.00;100653.53;4976661;28;20047;-80
2023/11/24 02:15:03;;;;;;;14.98;4.53;;;;;;;8.73;100.00;100650.84;4978970;28;20719;-80
2023/11/24 02:17:31;;;;;;;24.05;5.03;;;;;;;8.71;100.00;100649.34;4976470;28;20058;-81
2023/11/24 02:19:58;;;;;;;19.10;4.85;;;;;;;8.61;100.00;100641.56;4980094;28;20106;-80
2023/11/24 02:22:25;;;;;;;24.08;5.20;;;;;;;8.55;100.00;100636.91;4980254;28;20520;-81
2023/11/24 02:24:52;;;;;;;18.17;5.60;;;;;;;8.42;100.00;100631.22;4983761;28;20065;-80
2023/11/24 02:27:20;;;;;;;28.75;5.32;;;;;;;8.41;100.00;100624.34;4986189;28;20066;-80
2023/11/24 02:29:47;;;;;;;24.55;5.78;;;;;;;8.32;100.00;100626.00;4985144;28;20109;-80
2023/11/24 02:32:14;;;;;;;19.85;4.93;;;;;;;8.22;100.00;100615.59;4980898;28;20050;-81
2023/11/24 02:34:42;;;;;;;22.90;5.07;;;;;;;8.20;100.00;100606.25;4984049;28;20048;-81
2023/11/24 02:37:09;;;;;;;20.38;4.93;;;;;;;8.21;100.00;100603.50;4981695;28;20074;-81
2023/11/24 02:39:35;;;;;;;21.73;4.78;;;;;;;8.22;100.00;100604.34;4984816;28;20121;-81
2023/11/24 02:42:04;;;;;;;19.08;4.85;;;;;;;8.24;100.00;100598.03;4984879;28;20535;-81
2023/11/24 02:44:30;;;;;;;17.83;4.45;;;;;;;8.14;100.00;100592.00;4981127;28;20085;-82
2023/11/24 02:46:57;;;;;;;16.75;4.75;;;;;;;8.19;100.00;100584.59;4980587;28;20217;-81
2023/11/24 02:49:23;;;;;;;22.10;5.15;;;;;;;8.20;100.00;100591.44;4982550;28;20086;-81
2023/11/24 02:51:50;;;;;;;17.70;4.35;;;;;;;8.26;100.00;100582.22;4984710;28;20525;-81
2023/11/24 02:54:17;;;;;;;23.80;4.65;;;;;;;8.16;100.00;100594.47;4983353;28;20082;-81
2023/11/24 02:56:43;;;;;;;21.50;4.43;;;;;;;8.10;100.00;100595.84;4972694;28;20051;-81
2023/11/24 02:59:11;;;;;;;17.88;3.88;;;;;;;8.05;100.00;100598.06;4980691;28;20082;-81
2023/11/24 03:01:38;;;;;;;16.35;4.10;;;;;;;7.93;100.00;100594.81;4988085;28;20046;-81
2023/11/24 03:04:05;;;;;;;18.38;4.97;;;;;;;7.94;100.00;100590.41;4978988;28;20134;-80
2023/11/24 03:06:31;;;;;;;20.50;4.85;;;;;;;7.94;100.00;100595.63;4980112;28;20370;-79
2023/11/24 03:09:00;;;;;;;17.55;4.25;;;;;;;7.99;100.00;100593.44;4979847;28;20110;-79
2023/11/24 03:11:30;;;;;;;20.30;5.10;;;;;;;7.90;100.00;100589.88;4980412;28;20057;-79
2023/11/24 03:13:56;;;;;;;19.30;4.28;;;;;;;7.91;100.00;100583.69;4980727;28;20055;-80
2023/11/24 03:16:25;;;;;;;19.85;4.60;;;;;;;7.86;100.00;100578.09;4979512;28;20159;-81
2023/11/24 03:18:53;;;;;;;18.48;4.13;;;;;;;7.75;100.00;100574.81;4979064;28;20055;-82
2023/11/24 03:21:19;;;;;;;18.85;4.43;;;;;;;7.74;100.00;100573.16;4978893;28;20047;-80
2023/11/24 03:23:46;;;;;;;18.30;3.78;;;;;;;7.70;100.00;100570.00;4977865;28;20085;-80
2023/11/24 03:26:12;;;;;;;14.82;4.18;;;;;;;7.70;100.00;100561.38;4986056;28;20451;-81
2023/11/24 03:28:39;;;;;;;17.33;4.25;;;;;;;7.56;100.00;100550.41;4978324;28;20493;-83
2023/11/24 03:31:06;;;;;;;22.90;4.00;;;;;;;7.54;100.00;100541.94;4976946;28;20051;-81
2023/11/24 03:33:35;;;;;;;17.67;4.28;;;;;;;7.69;100.00;100554.53;4976944;28;20548;-80
2023/11/24 03:36:02;;;;;;;16.80;5.63;;;;;;;7.69;100.00;100554.53;4975956;28;20119;-80
2023/11/24 03:38:29;;;;;;;26.10;4.85;;;;;;;7.63;100.00;100543.69;4976576;28;20150;-80
2023/11/24 03:40:56;;;;;;;18.30;5.75;;;;;;;7.62;100.00;100539.44;4976359;28;20050;-80
2023/11/24 03:43:24;;;;;;;20.05;4.47;;;;;;;7.65;100.00;100552.19;4976369;28;20059;-79
2023/11/24 03:45:50;;;;;;;19.45;4.97;;;;;;;7.74;100.00;100547.13;4979072;28;20074;-80
2023/11/24 03:48:21;;;;;;;17.55;4.88;;;;;;;7.82;100.00;100539.44;4978649;28;20138;-80
2023/11/24 03:50:49;;;;;;;18.52;5.10;;;;;;;7.88;100.00;100541.47;4978823;28;20129;-80
2023/11/24 03:53:14;;;;;;;11.93;4.38;;;;;;;8.02;100.00;100540.22;4980298;28;20093;-81
2023/11/24 03:55:41;;;;;;;13.40;4.18;;;;;;;8.03;100.00;100528.81;5006904;23;20050;-79
2023/11/24 03:58:09;;;;;;;16.02;4.20;;;;;;;8.07;99.28;100533.59;4999887;28;20197;-81
2023/11/24 04:00:36;;;;;;;16.30;4.18;;;;;;;8.10;98.04;100527.28;4995601;28;20109;-79
2023/11/24 04:03:03;;;;;;;13.90;3.83;;;;;;;8.10;98.02;100530.69;5002048;28;20050;-83
2023/11/24 04:05:29;;;;;;;14.10;3.88;;;;;;;8.04;98.38;100530.44;5004086;28;20156;-81
2023/11/24 04:07:57;;;;;;;14.88;3.75;;;;;;;8.09;97.50;100520.41;4999917;28;20111;-79
2023/11/24 04:10:24;;;;;;;16.13;3.92;;;;;;;8.22;96.82;100520.91;4988798;28;20053;-79
2023/11/24 04:12:51;;;;;;;17.80;4.00;;;;;;;8.11;97.60;100513.28;4999612;28;20082;-77
2023/11/24 04:15:18;;;;;;;14.57;3.38;;;;;;;8.10;97.64;100512.44;5003343;28;20050;-79
2023/11/24 04:17:45;;;;;;;15.65;3.47;;;;;;;8.13;97.63;100512.16;5002316;28;20085;-79
2023/11/24 04:20:11;;;;;;;13.18;3.28;;;;;;;8.06;96.47;100494.63;5003599;28;20058;-79
2023/11/24 04:22:38;;;;;;;10.68;3.13;;;;;;;8.09;96.47;100505.59;4996065;28;20133;-78
2023/11/24 04:25:09;;;;;;;17.30;3.83;;;;;;;8.08;96.75;100498.75;4995229;28;20082;-77
2023/11/24 04:27:35;;;;;;;12.10;3.50;;;;;;;8.01;96.49;100496.88;4996022;28;20532;-79
2023/11/24 04:30:02;;;;;;;11.30;3.15;;;;;;;7.97;96.30;100496.34;4995243;28;20133;-79
2023/11/24 04:32:30;;;;;;;13.70;3.17;;;;;;;7.91;96.41;100491.69;4987264;28;20050;-77
2023/11/24 04:34:57;;;;;;;19.13;3.50;;;;;;;7.94;96.61;100489.63;4995964;28;20060;-78
2023/11/24 04:37:23;;;;;;;12.05;3.22;;;;;;;7.91;97.20;100476.88;4995783;28;20057;-77
2023/11/24 04:39:50;;;;;;;15.27;3.05;;;;;;;7.85;97.06;100481.84;4996724;28;20125;-78
2023/11/24 04:42:18;;;;;;;19.35;3.60;;;;;;;7.89;97.46;100493.63;4996883;28;20096;-79
2023/11/24 04:44:46;;;;;;;15.93;4.35;;;;;;;7.76;98.03;100503.53;4997331;28;20129;-76
2023/11/24 04:47:12;;;;;;;19.95;4.25;;;;;;;7.72;97.82;100502.16;4994150;28;20144;-77
2023/11/24 04:49:39;;;;;;;12.60;3.15;;;;;;;7.73;98.10;100495.97;4995368;28;20050;-77
2023/11/24 04:52:06;;;;;;;11.40;3.10;;;;;;;7.61;98.33;100495.31;4994685;28;20088;-76
2023/11/24 04:54:32;;;;;;;15.65;3.47;;;;;;;7.66;98.79;100508.75;4994374;28;20092;-77
2023/11/24 04:57:00;;;;;;;8.20;3.00;;;;;;;7.75;98.73;100514.91;5001592;28;20038;-79
2023/11/24 04:59:28;;;;;;;15.57;3.38;;;;;;;7.79;98.73;100514.47;5003408;28;20054;-80
2023/11/24 05:01:55;;;;;;;14.52;3.33;;;;;;;7.74;98.71;100508.03;5007186;28;20042;-81
2023/11/24 05:04:21;;;;;;;14.90;3.70;;;;;;;7.63;98.28;100502.03;5002287;28;20129;-80
2023/11/24 05:06:48;;;;;;;11.48;3.28;;;;;;;7.60;97.93;100501.50;4996128;28;20047;-78
2023/11/24 05:09:16;;;;;;;16.35;4.13;;;;;;;7.61;97.51;100498.75;4989604;28;20118;-79
2023/11/24 05:11:43;;;;;;;13.00;3.40;;;;;;;7.49;96.83;100479.06;4995496;28;20472;-79
2023/11/24 05:14:09;;;;;;;9.65;3.00;;;;;;;7.46;96.36;100481.94;4993600;28;20093;-80
2023/11/24 05:16:37;;;;;;;14.73;5.38;;;;;;;7.48;96.88;100485.22;4990547;28;20430;-77
2023/11/24 05:19:04;;;;;;;10.13;2.97;;;;;;;7.47;96.92;100480.97;4991122;28;20105;-77
2023/11/24 05:21:31;;;;;;;11.18;3.15;;;;;;;7.48;96.68;100484.41;4994006;28;20129;-78
2023/11/24 05:23:58;;;;;;;14.27;3.03;;;;;;;7.49;97.55;100488.66;4995205;28;20097;-79
2023/11/24 05:26:24;;;;;;;13.05;3.50;;;;;;;7.48;98.11;100485.22;4994262;28;20496;-80
2023/11/24 05:28:51;;;;;;;14.05;3.38;;;;;;;7.44;98.46;100489.06;4994965;28;20046;-78
2023/11/24 05:31:17;;;;;;;11.07;3.97;;;;;;;7.42;99.19;100493.59;4995356;28;20057;-80
2023/11/24 05:33:45;;;;;;;12.32;3.05;;;;;;;7.49;99.19;100494.69;4995565;28;20530;-78
2023/11/24 05:36:12;;;;;;;9.20;4.03;;;;;;;7.34;99.39;100488.25;4994455;28;20129;-79
2023/11/24 05:38:39;;;;;;;13.20;3.30;;;;;;;7.40;99.79;100495.50;4995330;28;20583;-78
2023/11/24 05:41:06;;;;;;;15.15;3.38;;;;;;;7.47;99.73;100494.00;4992675;28;20126;-78
2023/11/24 05:43:34;;;;;;;13.30;3.42;;;;;;;7.43;99.75;100484.00;4992282;28;20050;-78
2023/11/24 05:46:00;;;;;;;12.48;3.05;;;;;;;7.46;100.00;100491.53;4992852;28;20046;-78
2023/11/24 05:48:28;;;;;;;9.45;2.92;;;;;;;7.48;99.85;100480.03;5000996;28;20043;-79
2023/11/24 05:50:58;;;;;;;12.07;2.70;;;;;;;7.59;99.92;100485.03;5002379;28;20046;-79
2023/11/24 05:53:25;;;;;;;9.57;3.65;;;;;;;7.49;99.90;100489.47;4998036;28;20137;-78
2023/11/24 05:55:51;;;;;;;14.13;2.90;;;;;;;7.54;100.00;100487.28;4994298;28;20073;-79
2023/11/24 05:58:18;;;;;;;13.35;3.03;;;;;;;7.58;100.00;100485.19;4990696;28;20085;-79
2023/11/24 06:00:45;;;;;;;13.43;3.65;;;;;;;7.56;100.00;100487.94;5001761;28;20093;-79
2023/11/24 06:03:11;;;;;;;11.20;3.75;;;;;;;7.57;100.00;100481.75;5002839;28;20050;-76
2023/11/24 06:05:38;;;;;;;13.70;3.53;;;;;;;7.54;100.00;100478.63;4998603;28;20101;-80
2023/11/24 06:08:06;;;;;;;16.02;3.63;;;;;;;7.56;100.00;100482.72;5007393;28;20054;-79
2023/11/24 06:10:33;;;;;;;20.65;3.72;;;;;;;7.64;100.00;100476.81;5006846;28;20109;-82
2023/11/24 06:13:00;;;;;;;10.90;3.30;;;;;;;7.54;100.00;100479.47;5005791;28;20054;-81
2023/11/24 06:15:27;;;;;;;8.40;3.20;;;;;;;7.59;100.00;100485.03;4997874;28;20081;-80
2023/11/24 06:17:53;;;;;;;19.55;3.97;;;;;;;7.58;100.00;100474.75;5007143;28;20074;-82
2023/11/24 06:20:20;;;;;;;15.95;3.45;;;;;;;7.61;99.81;100469.28;5006925;28;20050;-81
2023/11/24 06:22:47;;;;;;;14.38;3.60;;;;;;;7.66;99.43;100467.91;5005304;28;20255;-82
2023/11/24 06:25:15;;;;;;;14.43;3.50;;;;;;;7.70;99.48;100465.84;5003808;28;20077;-81
2023/11/24 06:27:42;;;;;;;14.55;3.28;;;;;;;7.71;99.65;100472.69;5005767;28;20046;-82
2023/11/24 06:30:09;;;;;;;12.88;3.33;;;;;;;7.70;99.51;100465.00;5006654;28;20076;-80
2023/11/24 06:32:36;;;;;;;12.60;3.90;;;;;;;7.66;99.77;100465.28;5005399;28;20535;-78
2023/11/24 06:35:06;;;;;;;12.40;3.45;;;;;;;7.56;99.84;100467.09;5003384;28;20054;-81
2023/11/24 06:37:33;;;;;;;12.88;3.97;;;;;;;7.52;100.00;100455.34;5004384;28;20047;-80
2023/11/24 06:39:59;;;;;;;14.10;3.72;;;;;;;7.58;100.00;100448.72;5005140;28;20081;-81
2023/11/24 06:42:28;;;;;;;16.10;5.22;;;;;;;7.48;100.00;100443.56;5005800;28;20062;-80
2023/11/24 06:44:55;;;;;;;12.60;3.20;;;;;;;7.49;99.38;100433.97;5004205;28;20055;-81
2023/11/24 06:47:23;;;;;;;10.85;3.50;;;;;;;7.45;99.51;100436.03;4996477;28;20086;-79
2023/11/24 06:49:50;;;;;;;11.27;3.15;;;;;;;7.36;100.00;100439.47;5005263;28;20050;-80
2023/11/24 06:52:17;;;;;;;15.95;3.70;;;;;;;7.37;100.00;100441.13;5006613;28;20086;-81
2023/11/24 06:54:44;;;;;;;17.65;4.75;;;;;;;7.38;100.00;100442.75;5006296;28;20054;-81
2023/11/24 06:57:10;;;;;;;12.70;3.42;;;;;;;7.44;100.00;100434.41;5007022;28;20086;-80
2023/11/24 06:59:40;;;;;;;15.52;4.05;;;;;;;7.48;100.00;100432.34;5007613;28;20046;-81
2023/11/24 07:02:07;;;;;;;16.20;3.63;;;;;;;7.49;100.00;100433.97;5000344;28;20062;-80
2023/11/24 07:04:34;;;;;;;14.35;3.80;;;;;;;7.47;100.00;100436.72;5001920;28;20054;-80
2023/11/24 07:07:01;;;;;;;12.85;3.40;;;;;;;7.48;100.00;100443.56;5004405;28;20114;-79
2023/11/24 07:09:28;;;;;;;19.10;4.22;;;;;;;7.43;100.00;100440.56;5005352;28;20050;-79
2023/11/24 07:11:54;;;;;;;16.90;3.10;;;;;;;7.40;100.00;100443.44;5004748;28;20057;-79
2023/11/24 07:14:21;;;;;;;10.93;3.45;;;;;;;7.30;100.00;100450.44;5000301;28;20103;-79
2023/11/24 07:16:49;;;;;;;14.88;3.50;;;;;;;7.42;100.00;100436.31;5008179;28;20564;-77
2023/11/24 07:19:17;;;;;;;16.83;3.85;;;;;;;7.41;100.00;100445.09;5008794;28;20054;-80
2023/11/24 07:21:45;;;;;;;17.30;4.63;;;;;;;7.48;100.00;100443.56;5010070;28;20085;-80
2023/11/24 07:24:11;;;;;;;16.13;3.67;;;;;;;7.55;100.00;100444.66;5011443;28;20046;-80
2023/11/24 07:26:40;;;;;;;17.60;4.13;;;;;;;7.48;100.00;100430.56;5003997;28;20164;-80
2023/11/24 07:29:07;;;;;;;16.33;4.20;;;;;;;7.60;100.00;100447.63;5008532;28;20054;-80
2023/11/24 07:31:34;;;;;;;11.80;3.75;;;;;;;7.60;100.00;100431.19;5004600;28;20066;-79
2023/11/24 07:34:02;;;;;;;24.80;5.57;;;;;;;7.64;100.00;100427.34;5003614;28;20199;-80
2023/11/24 07:36:29;;;;;;;14.00;4.70;;;;;;;7.63;100.00;100423.91;5006287;28;20058;-79
2023/11/24 07:38:55;;;;;;;15.77;4.57;;;;;;;7.56;100.00;100425.44;5005725;28;20108;-79
2023/11/24 07:41:22;;;;;;;19.38;4.55;;;;;;;7.60;100.00;100429.41;5000629;28;20061;-80
2023/11/24 07:43:49;;;;;;;15.68;4.72;;;;;;;7.59;100.00;100430.34;5008714;28;20275;-81
2023/11/24 07:46:15;;;;;;;16.80;4.53;;;;;;;7.56;100.00;100435.06;5009863;28;20058;-81
2023/11/24 07:48:43;;;;;;;16.08;3.72;;;;;;;7.44;100.00;100436.19;5010108;28;20086;-80
2023/11/24 07:51:11;;;;;;;13.27;3.90;;;;;;;7.42;100.00;100438.91;5008792;28;20053;-80
2023/11/24 07:53:41;;;;;;;15.45;3.72;;;;;;;7.33;100.00;100444.97;5009604;28;20061;-80
2023/11/24 07:56:08;;;;;;;21.67;3.95;;;;;;;7.28;100.00;100453.19;5004284;28;20093;-80
2023/11/24 07:58:34;;;;;;;12.07;3.30;;;;;;;7.21;100.00;100451.28;5002604;28;20077;-80
2023/11/24 08:01:01;;;;;;;10.50;2.92;;;;;;;7.08;100.00;100461.16;5004522;28;20061;-80
2023/11/24 08:03:29;;;;;;;9.93;2.97;;;;;;;7.09;100.00;100455.00;5007709;28;20078;-80
2023/11/24 08:05:56;;;;;;;5.57;2.65;;;;;;;6.89;100.00;100444.59;4999995;28;20114;-78
2023/11/24 08:08:24;;;;;;;11.35;3.97;;;;;;;6.81;100.00;100436.63;4990604;28;20212;-81
2023/11/24 08:10:51;;;;;;;6.03;2.50;;;;;;;6.68;100.00;100436.06;5002088;28;20050;-81
2023/11/24 08:13:19;;;;;;;3.83;1.80;;;;;;;6.65;100.00;100425.94;5000703;28;20085;-82
2023/11/24 08:15:45;;;;;;;9.65;2.28;;;;;;;6.69;100.00;100414.31;4998365;28;20046;-81
2023/11/24 08:18:12;;;;;;;5.70;2.05;;;;;;;6.69;100.00;100409.13;4998389;28;20093;-80
2023/11/24 08:20:40;;;;;;;7.43;2.58;;;;;;;6.77;100.00;100401.47;5002261;28;20051;-79
2023/11/24 08:23:06;;;;;;;6.15;2.55;;;;;;;6.75;100.00;100399.94;5003272;28;20054;-78
2023/11/24 08:25:35;;;;;;;5.43;1.88;;;;;;;6.73;100.00;100404.47;5001462;28;20081;-80
2023/11/24 08:28:04;;;;;;;6.97;2.78;;;;;;;6.64;100.00;100387.91;4995401;28;20082;-79
2023/11/24 08:30:32;;;;;;;7.10;2.05;;;;;;;6.59;100.00;100379.72;4997830;28;20061;-81
2023/11/24 08:32:58;;;;;;;3.97;1.70;;;;;;;6.65;100.00;100390.38;5004106;28;20120;-80
2023/11/24 08:35:26;;;;;;;8.60;1.73;;;;;;;6.72;100.00;100392.41;5004132;28;20061;-81
2023/11/24 08:37:53;;;;;;;6.80;2.58;;;;;;;6.81;100.00;100392.44;4993070;28;20052;-81
2023/11/24 08:40:21;;;;;;;6.43;2.72;;;;;;;6.99;100.00;100392.56;5001509;28;20085;-78
2023/11/24 08:42:49;;;;;;;5.78;2.75;;;;;;;7.16;100.00;100396.22;4996436;28;20149;-79
2023/11/24 08:45:16;;;;;;;4.90;2.65;;;;;;;7.33;100.00;100391.13;5002171;28;20050;-79
2023/11/24 08:47:43;;;;;;;12.90;3.35;;;;;;;7.34;100.00;100394.53;4996536;28;20050;-80
2023/11/24 08:50:12;;;;;;;10.90;3.00;;;;;;;7.47;100.00;100389.84;4994873;28;20134;-82
2023/11/24 08:52:39;;;;;;;9.93;4.05;;;;;;;7.40;100.00;100399.19;5000503;28;20054;-78
2023/11/24 08:55:08;;;;;;;11.52;3.22;;;;;;;7.40;100.00;100399.19;5002592;28;20091;-78
2023/11/24 08:57:35;;;;;;;10.35;2.97;;;;;;;7.30;100.00;100382.78;4996551;28;20047;-79
2023/11/24 09:00:05;;;;;;;8.18;3.22;;;;;;;7.34;100.00;100389.34;4997237;28;20078;-79
2023/11/24 09:02:32;;;;;;;14.07;3.58;;;;;;;7.33;100.00;100377.28;4990714;28;20054;-81
2023/11/24 09:04:59;;;;;;;10.20;4.00;;;;;;;7.46;100.00;100380.41;4999388;28;20070;-78
2023/11/24 09:07:26;;;;;;;10.43;3.53;;;;;;;7.57;100.00;100364.59;4996955;28;20050;-79
2023/11/24 09:09:53;;;;;;;10.73;3.60;;;;;;;7.46;100.00;100350.94;4997846;28;20077;-79
2023/11/24 09:12:20;;;;;;;14.65;3.30;;;;;;;7.52;100.00;100359.00;4999038;28;20080;-80
2023/11/24 09:14:46;;;;;;;10.02;3.28;;;;;;;7.47;100.00;100353.41;4999438;28;20129;-80
2023/11/24 09:17:14;;;;;;;8.65;3.22;;;;;;;7.43;100.00;100356.44;4993446;28;20509;-79
2023/11/24 09:19:41;;;;;;;10.60;3.30;;;;;;;7.42;99.81;100345.19;4995709;28;20125;-79
2023/11/24 09:22:07;;;;;;;11.10;4.68;;;;;;;7.50;99.18;100355.72;4998011;28;20066;-81
2023/11/24 09:24:34;;;;;;;12.05;3.25;;;;;;;7.56;98.65;100349.91;4990164;28;20085;-79
2023/11/24 09:27:01;;;;;;;10.40;3.45;;;;;;;7.61;98.26;100355.53;5000959;28;20129;-79
2023/11/24 09:29:27;;;;;;;14.30;3.40;;;;;;;7.64;97.83;100339.63;5002950;28;20078;-80
2023/11/24 09:31:54;;;;;;;10.00;3.05;;;;;;;7.59;98.10;100328.81;5000346;28;20078;-79
2023/11/24 09:34:22;;;;;;;10.82;2.92;;;;;;;7.60;97.63;100333.06;5000682;28;20050;-80
2023/11/24 09:36:49;;;;;;;11.27;3.97;;;;;;;7.59;97.21;100326.19;4998546;28;20089;-78
2023/11/24 09:39:17;;;;;;;9.93;2.80;;;;;;;7.59;96.77;100315.78;5001930;28;20504;-78
2023/11/24 09:41:49;;;;;;;14.45;2.70;;;;;;;7.66;96.72;100310.81;5001476;28;20054;-80
2023/11/24 09:44:16;;;;;;;6.45;2.47;;;;;;;7.73;96.12;100309.28;4998699;28;20085;-80
2023/11/24 09:46:44;;;;;;;6.40;2.40;;;;;;;7.80;95.02;100293.91;5003761;28;20046;-80
2023/11/24 09:49:11;;;;;;;10.60;2.80;;;;;;;7.81;94.10;100287.72;5003994;28;20119;-81
2023/11/24 09:51:41;;;;;;;9.20;2.67;;;;;;;7.78;93.84;100283.63;4999508;28;20073;-79
2023/11/24 09:54:10;;;;;;;7.43;2.85;;;;;;;7.80;93.34;100273.88;4999041;28;20065;-80
2023/11/24 09:56:56;;;;;;;9.90;2.33;;;;;;;7.61;92.71;100259.19;5047593;23;20065;-81
2023/11/24 09:59:23;;;;;;;9.65;3.17;;;;;;;7.82;92.78;100265.91;4992289;28;20077;-81
2023/11/24 10:01:53;;;;;;;7.25;2.53;;;;;;;7.80;91.84;100260.03;4996424;28;20108;-81
2023/11/24 10:04:19;;;;;;;8.93;2.53;;;;;;;7.65;91.61;100244.91;4996726;28;20055;-82
2023/11/24 10:06:49;;;;;;;5.82;2.60;;;;;;;7.61;91.99;100253.97;4991167;28;20046;-81
2023/11/24 10:09:23;;;;;;;7.60;3.72;;;;;;;7.60;91.92;100244.50;4993945;28;20417;-81
2023/11/24 10:11:49;;;;;;;11.73;3.15;;;;;;;7.63;91.97;100256.44;4995549;28;20054;-81
2023/11/24 10:14:16;;;;;;;7.45;2.70;;;;;;;7.44;92.05;100259.97;4992348;28;20047;-81
2023/11/24 10:16:43;;;;;;;6.93;2.85;;;;;;;7.29;92.25;100256.19;4992071;28;20054;-81
2023/11/24 10:19:14;;;;;;;5.70;2.42;;;;;;;7.39;92.67;100251.78;4994539;28;20137;-81
2023/11/24 10:21:43;;;;;;;11.13;2.95;;;;;;;7.45;92.93;100253.81;4995976;28;20042;-81
2023/11/24 10:24:11;;;;;;;5.75;2.53;;;;;;;7.42;93.23;100261.91;4996749;28;20057;-81
2023/11/24 10:26:40;;;;;;;4.57;2.35;;;;;;;7.35;93.07;100247.00;4992661;28;20057;-80
2023/11/24 10:29:09;;;;;;;7.63;2.63;;;;;;;7.34;93.81;100246.19;4994025;28;20042;-80
2023/11/24 10:31:36;;;;;;;5.07;2.47;;;;;;;7.17;93.53;100262.53;4997774;28;20078;-81
2023/11/24 10:34:04;;;;;;;9.27;3.10;;;;;;;7.33;93.84;100267.97;4996019;28;20046;-81
2023/11/24 10:36:31;;;;;;;3.97;2.50;;;;;;;7.22;93.79;100270.75;4997296;28;20060;-81
2023/11/24 10:39:02;;;;;;;7.65;2.60;;;;;;;7.20;93.40;100268.28;4994067;28;20047;-80
2023/11/24 10:41:33;;;;;;;11.88;2.80;;;;;;;7.14;94.04;100268.03;4997841;28;20152;-79
2023/11/24 10:44:03;;;;;;;7.55;2.80;;;;;;;7.18;95.10;100274.59;4993771;28;20047;-81
2023/11/24 10:46:37;;;;;;;10.52;2.83;;;;;;;7.11;96.80;100283.94;4992274;28;20054;-81
2023/11/24 10:49:07;;;;;;;7.13;3.88;;;;;;;7.07;98.09;100288.63;4997269;28;20417;-82
2023/11/24 10:51:43;;;;;;;13.73;3.80;;;;;;;7.08;98.64;100289.44;5000508;28;20058;-80
2023/11/24 10:54:16;;;;;;;7.95;2.97;;;;;;;6.98;97.77;100285.09;4999983;28;20540;-81
2023/11/24 10:56:45;;;;;;;7.22;2.67;;;;;;;7.05;97.04;100276.72;4991212;28;20054;-81
2023/11/24 10:59:13;;;;;;;9.13;3.30;;;;;;;7.18;96.76;100277.19;4997916;28;20046;-82
2023/11/24 11:01:40;;;;;;;14.05;2.75;;;;;;;7.41;96.71;100265.47;5000964;28;20069;-81
2023/11/24 11:04:09;;;;;;;6.82;2.80;;;;;;;7.41;95.61;100255.06;5000717;28;20114;-81
2023/11/24 11:06:43;;;;;;;6.53;2.05;;;;;;;7.50;95.32;100254.19;5001218;28;20058;-82
2023/11/24 11:09:19;;;;;;;7.05;2.65;;;;;;;7.32;94.16;100243.72;5000857;28;20066;-80
2023/11/24 11:11:56;;;;;;;7.10;2.20;;;;;;;7.32;94.32;100240.31;5000752;28;20077;-82
2023/11/24 11:14:24;;;;;;;6.47;2.53;;;;;;;7.17;94.03;100226.94;4992992;28;20058;-81
2023/11/24 11:16:52;;;;;;;6.82;2.65;;;;;;;7.32;94.29;100235.91;4998184;28;20058;-81
2023/11/24 11:19:31;;;;;;;8.07;2.47;;;;;;;7.38;94.90;100234.53;4997803;28;20054;-81
2023/11/24 11:22:00;;;;;;;8.23;2.47;;;;;;;7.36;94.36;100220.00;4999024;28;20082;-80
2023/11/24 11:24:28;;;;;;;4.25;2.65;;;;;;;7.43;94.17;100215.88;4993094;28;20133;-80